ADDS METAR Data INFO
IDs: Format: Raw Decoded Include TAF

Data at: 2249 UTC 16 Jan 2018

PFNO 162156Z AUTO 05010KT 10SM CLR M05/M08 A2960 RMK AO2 SLP023 T10501078 FZRANO
PFNO 162056Z AUTO 06015KT 10SM CLR M04/M07 A2960 RMK AO2 SLP024 T10441072 50003 FZRANO
PFNO 161956Z AUTO 05014KT 10SM SCT060 M04/M07 A2960 RMK AO2 SLP024 T10391067 FZRANO
PFNO 161856Z AUTO 05013KT 10SM OVC065 M03/M06 A2960 RMK AO2 SLP022 T10281056 FZRANO
PFNO 161756Z AUTO 10014G18KT 10SM OVC065 M03/M05 A2959 RMK AO2 SLP021 T10281050 11022 21033 58002 FZRANO
PFNO 161656Z AUTO 06015KT 10SM OVC070 M03/M05 A2959 RMK AO2 SLP021 T10281050 FZRANO
PFNO 161556Z AUTO 06011KT 10SM OVC065 M03/M05 A2960 RMK AO2 SLP023 T10281050 FZRANO
PFNO 161456Z AUTO 06016KT 10SM OVC065 M03/M05 A2960 RMK AO2 SLP023 T10281050 51007 FZRANO
PFNO 161356Z AUTO 07016KT 10SM OVC065 M03/M05 A2959 RMK AO2 SLP020 T10281050 FZRANO
PFNO 161256Z AUTO 07017KT 10SM OVC070 M03/M05 A2959 RMK AO2 SLP020 T10331050 FZRANO
PFNO 161156Z AUTO 07016KT 10SM OVC070 M03/M06 A2958 RMK AO2 SLP015 T10331056 10000 21033 51012 FZRANO
PFNO 161056Z AUTO 07016KT 10SM OVC065 M03/M05 A2957 RMK AO2 SLP015 T10281050 FZRANO
PFNO 160956Z AUTO 07016KT 10SM OVC065 M03/M05 A2956 RMK AO2 SLP010 T10281050 FZRANO
PFNO 160856Z AUTO 08015KT 10SM SCT036 BKN060 OVC070 M01/M04 A2954 RMK AO2 SLP004 T10111039 410111044 52015 FZRANO
PFNO 160756Z AUTO 10014KT 10SM SCT026 OVC070 M01/M04 A2953 RMK AO2 SLP001 T10111039 FZRANO
PFNO 160656Z AUTO 08013KT 10SM OVC085 M02/M04 A2950 RMK AO2 SLP991 T10171039 FZRANO
PFNO 160556Z AUTO 07012KT 10SM FEW075 BKN090 M01/M04 A2950 RMK AO2 SLP989 60000 T10111044 11011 21017 53020 FZRANO
PFNO 160456Z AUTO 10015KT 10SM OVC065 M01/M04 A2948 RMK AO2 SLP982 T10111039 FZRANO
PFNO 160356Z AUTO 12021KT 10SM BKN039 OVC075 M02/M04 A2945 RMK AO2 PK WND 12027/0324 SNB0259E38 SLP973 P0000 T10171044 FZRANO
PFNO 160256Z AUTO 12020KT 10SM BKN055 OVC070 M02/M04 A2944 RMK AO2 PK WND 12027/0232 SNE0157 SLP969 60000 T10171044 51016 FZRANO
PFNO 160156Z AUTO 12024KT 9SM -SN OVC050 M02/M04 A2942 RMK AO2 PK WND 12027/0155 SNB30 SLP963 P0000 T10171044 FZRANO
PFNO 160056Z AUTO 11019G24KT 10SM BKN065 OVC090 M02/M05 A2941 RMK AO2 PK WND 12026/0001 SLP960 T10171050 FZRANO
PFNO 152356Z AUTO 12021KT 10SM OVC060 M02/M06 A2939 RMK AO2 PK WND 12026/2353 SLP953 T10171056 11011 21028 51008 FZRANO
PFNO 152256Z AUTO 11016G22KT 10SM BKN050 BKN075 OVC090 M02/M06 A2939 RMK AO2 SLP953 T10171056 FZRANO
PFNO 152156Z AUTO 11019KT 10SM FEW048 BKN060 M02/M06 A2938 RMK AO2 PK WND 12027/2134 SLP948 T10171061 FZRANO
PFNO 152056Z AUTO 10015KT 10SM FEW036 M02/M06 A2936 RMK AO2 SLP944 T10171061 53020 FZRANO
PFNO 151956Z AUTO 10015KT 10SM BKN110 M01/M06 A2934 RMK AO2 SLP936 T10111056 FZRANO
PFNO 151856Z AUTO 09015KT 10SM CLR M02/M06 A2932 RMK AO2 SLP931 T10171056 FZRANO
PFNO 151756Z AUTO 09017KT 10SM OVC060 M02/M06 A2931 RMK AO2 SLP925 60000 T10171056 11011 21039 52010 FZRANO
PFNO 151656Z AUTO 09018KT 10SM SCT085 OVC120 M02/M05 A2930 RMK AO2 SNB33E50 SLP921 P0000 T10171050 FZRANO
PFNO 151556Z AUTO 07018KT 10SM BKN095 OVC110 M02/M06 A2929 RMK AO2 SLP918 T10171061 FZRANO
PFNO 151456Z AUTO 07019KT 10SM BKN070 OVC090 M03/M07 A2928 RMK AO2 PK WND 07026/1427 SLP914 T10281067 55002 FZRANO
PFNO 151356Z AUTO 07020KT 10SM BKN070 OVC085 M02/M06 A2927 RMK AO2 SLP913 T10221061 FZRANO
PFNO 151256Z AUTO 06020KT 10SM OVC080 M03/M07 A2928 RMK AO2 PK WND 07029/1202 SLP915 T10331072 FZRANO
PFNO 151156Z AUTO 07024KT 10SM OVC065 M04/M07 A2928 RMK AO2 PK WND 07028/1147 SLP916 T10391072 11011 21044 53008 FZRANO
PFNO 151056Z AUTO 07023KT 10SM OVC070 M04/M07 A2927 RMK AO2 PK WND 07030/1017 SLP912 T10391072 FZRANO